sensor_id;sensor_type;location;lat;lon;timestamp;temperature;humidity
28175;SHT30;59417;44.788;10.334;2022-09-27T00:02:19;16.88;71.35
28175;SHT30;59417;44.788;10.334;2022-09-27T00:04:45;16.96;71.00
28175;SHT30;59417;44.788;10.334;2022-09-27T00:07:11;16.96;72.69
28175;SHT30;59417;44.788;10.334;2022-09-27T00:09:36;16.94;72.56
28175;SHT30;59417;44.788;10.334;2022-09-27T00:12:02;16.99;71.63
28175;SHT30;59417;44.788;10.334;2022-09-27T00:14:28;16.94;72.72
28175;SHT30;59417;44.788;10.334;2022-09-27T00:16:54;16.86;73.20
28175;SHT30;59417;44.788;10.334;2022-09-27T00:19:21;16.92;72.86
28175;SHT30;59417;44.788;10.334;2022-09-27T00:21:48;16.99;72.19
28175;SHT30;59417;44.788;10.334;2022-09-27T00:24:17;17.10;71.83
28175;SHT30;59417;44.788;10.334;2022-09-27T00:26:43;17.19;71.32
28175;SHT30;59417;44.788;10.334;2022-09-27T00:29:09;17.20;70.49
28175;SHT30;59417;44.788;10.334;2022-09-27T00:31:36;17.29;69.36
28175;SHT30;59417;44.788;10.334;2022-09-27T00:34:03;17.30;69.36
28175;SHT30;59417;44.788;10.334;2022-09-27T00:36:31;17.34;70.47
28175;SHT30;59417;44.788;10.334;2022-09-27T00:38:58;17.36;71.08
28175;SHT30;59417;44.788;10.334;2022-09-27T00:41:32;17.39;71.90
28175;SHT30;59417;44.788;10.334;2022-09-27T00:46:39;17.33;72.00
28175;SHT30;59417;44.788;10.334;2022-09-27T00:49:18;17.22;71.33
28175;SHT30;59417;44.788;10.334;2022-09-27T00:51:47;17.08;72.69
28175;SHT30;59417;44.788;10.334;2022-09-27T00:54:16;17.08;73.27
28175;SHT30;59417;44.788;10.334;2022-09-27T00:56:44;17.00;73.31
28175;SHT30;59417;44.788;10.334;2022-09-27T00:59:16;16.96;73.68
28175;SHT30;59417;44.788;10.334;2022-09-27T01:01:43;16.96;73.15
28175;SHT30;59417;44.788;10.334;2022-09-27T01:04:12;17.12;72.27
28175;SHT30;59417;44.788;10.334;2022-09-27T01:06:39;17.17;71.62
28175;SHT30;59417;44.788;10.334;2022-09-27T01:09:09;17.36;71.14
28175;SHT30;59417;44.788;10.334;2022-09-27T01:11:47;17.36;70.80
28175;SHT30;59417;44.788;10.334;2022-09-27T01:17:02;17.39;71.74
28175;SHT30;59417;44.788;10.334;2022-09-27T01:29:10;17.20;72.86
28175;SHT30;59417;44.788;10.334;2022-09-27T01:31:46;17.22;72.57
28175;SHT30;59417;44.788;10.334;2022-09-27T01:34:30;17.16;72.19
28175;SHT30;59417;44.788;10.334;2022-09-27T01:37:07;17.31;71.72
28175;SHT30;59417;44.788;10.334;2022-09-27T01:39:48;17.16;72.47
28175;SHT30;59417;44.788;10.334;2022-09-27T01:42:44;17.05;72.66
28175;SHT30;59417;44.788;10.334;2022-09-27T01:45:35;17.10;72.63
28175;SHT30;59417;44.788;10.334;2022-09-27T01:48:14;17.06;73.16
28175;SHT30;59417;44.788;10.334;2022-09-27T01:53:32;16.86;72.84
28175;SHT30;59417;44.788;10.334;2022-09-27T01:56:18;16.95;72.25
28175;SHT30;59417;44.788;10.334;2022-09-27T02:01:25;17.00;72.02
28175;SHT30;59417;44.788;10.334;2022-09-27T02:03:53;17.00;72.39
28175;SHT30;59417;44.788;10.334;2022-09-27T02:06:42;16.96;73.03
28175;SHT30;59417;44.788;10.334;2022-09-27T02:12:20;16.64;74.56
28175;SHT30;59417;44.788;10.334;2022-09-27T02:15:05;16.55;74.58
28175;SHT30;59417;44.788;10.334;2022-09-27T02:17:59;16.59;74.01
28175;SHT30;59417;44.788;10.334;2022-09-27T02:20:34;16.66;73.40
28175;SHT30;59417;44.788;10.334;2022-09-27T02:23:22;16.48;74.15
28175;SHT30;59417;44.788;10.334;2022-09-27T02:28:58;16.07;75.79
28175;SHT30;59417;44.788;10.334;2022-09-27T02:31:31;16.06;75.92
28175;SHT30;59417;44.788;10.334;2022-09-27T02:34:02;16.10;75.14
28175;SHT30;59417;44.788;10.334;2022-09-27T02:36:30;16.21;74.20
28175;SHT30;59417;44.788;10.334;2022-09-27T02:39:00;16.33;74.04
28175;SHT30;59417;44.788;10.334;2022-09-27T02:41:32;16.31;74.07
28175;SHT30;59417;44.788;10.334;2022-09-27T02:44:03;16.45;73.96
28175;SHT30;59417;44.788;10.334;2022-09-27T02:52:53;16.66;73.51
28175;SHT30;59417;44.788;10.334;2022-09-27T02:55:42;16.64;73.77
28175;SHT30;59417;44.788;10.334;2022-09-27T03:02:12;16.59;73.83
28175;SHT30;59417;44.788;10.334;2022-09-27T03:05:07;16.55;73.82
28175;SHT30;59417;44.788;10.334;2022-09-27T03:07:35;16.61;73.33
28175;SHT30;59417;44.788;10.334;2022-09-27T03:10:03;16.69;72.90
28175;SHT30;59417;44.788;10.334;2022-09-27T03:12:30;16.55;73.05
28175;SHT30;59417;44.788;10.334;2022-09-27T03:14:58;16.55;73.39
28175;SHT30;59417;44.788;10.334;2022-09-27T03:17:44;16.35;73.88
28175;SHT30;59417;44.788;10.334;2022-09-27T03:20:29;16.17;75.01
28175;SHT30;59417;44.788;10.334;2022-09-27T03:23:09;16.24;74.71
28175;SHT30;59417;44.788;10.334;2022-09-27T03:25:34;16.23;74.62
28175;SHT30;59417;44.788;10.334;2022-09-27T03:28:00;16.34;73.90
28175;SHT30;59417;44.788;10.334;2022-09-27T03:30:26;16.38;73.88
28175;SHT30;59417;44.788;10.334;2022-09-27T03:32:52;16.23;74.75
28175;SHT30;59417;44.788;10.334;2022-09-27T03:35:36;16.04;75.29
28175;SHT30;59417;44.788;10.334;2022-09-27T03:38:03;15.82;76.28
28175;SHT30;59417;44.788;10.334;2022-09-27T03:40:29;15.74;76.73
28175;SHT30;59417;44.788;10.334;2022-09-27T03:42:55;15.83;76.20
28175;SHT30;59417;44.788;10.334;2022-09-27T03:45:22;15.90;75.62
28175;SHT30;59417;44.788;10.334;2022-09-27T03:47:49;15.97;75.39
28175;SHT30;59417;44.788;10.334;2022-09-27T03:50:14;16.04;75.41
28175;SHT30;59417;44.788;10.334;2022-09-27T03:52:42;16.17;74.96
28175;SHT30;59417;44.788;10.334;2022-09-27T03:55:09;16.09;74.94
28175;SHT30;59417;44.788;10.334;2022-09-27T03:57:35;15.89;75.76
28175;SHT30;59417;44.788;10.334;2022-09-27T04:00:00;15.80;76.12
28175;SHT30;59417;44.788;10.334;2022-09-27T04:02:39;15.80;76.11
28175;SHT30;59417;44.788;10.334;2022-09-27T04:05:24;15.82;75.96
28175;SHT30;59417;44.788;10.334;2022-09-27T04:07:54;15.80;76.16
28175;SHT30;59417;44.788;10.334;2022-09-27T04:10:21;15.86;75.62
28175;SHT30;59417;44.788;10.334;2022-09-27T04:12:48;15.96;75.21
28175;SHT30;59417;44.788;10.334;2022-09-27T04:15:13;15.87;75.44
28175;SHT30;59417;44.788;10.334;2022-09-27T04:18:05;15.83;75.39
28175;SHT30;59417;44.788;10.334;2022-09-27T04:20:32;15.97;74.79
28175;SHT30;59417;44.788;10.334;2022-09-27T04:23:00;15.98;75.05
28175;SHT30;59417;44.788;10.334;2022-09-27T04:25:26;15.97;74.90
28175;SHT30;59417;44.788;10.334;2022-09-27T04:27:56;15.83;75.64
28175;SHT30;59417;44.788;10.334;2022-09-27T04:30:22;15.72;75.55
28175;SHT30;59417;44.788;10.334;2022-09-27T04:33:13;15.51;76.68
28175;SHT30;59417;44.788;10.334;2022-09-27T04:36:16;15.51;76.48
28175;SHT30;59417;44.788;10.334;2022-09-27T04:39:10;15.53;76.36
28175;SHT30;59417;44.788;10.334;2022-09-27T04:41:40;15.29;76.69
28175;SHT30;59417;44.788;10.334;2022-09-27T04:44:06;15.28;77.32
28175;SHT30;59417;44.788;10.334;2022-09-27T04:46:32;15.25;77.49
28175;SHT30;59417;44.788;10.334;2022-09-27T04:48:59;15.31;77.16
28175;SHT30;59417;44.788;10.334;2022-09-27T04:51:26;15.41;76.91
28175;SHT30;59417;44.788;10.334;2022-09-27T04:53:55;15.46;77.12
28175;SHT30;59417;44.788;10.334;2022-09-27T04:56:21;15.56;76.61
28175;SHT30;59417;44.788;10.334;2022-09-27T04:58:47;15.53;76.81
28175;SHT30;59417;44.788;10.334;2022-09-27T05:01:13;15.53;76.62
28175;SHT30;59417;44.788;10.334;2022-09-27T05:03:39;15.52;76.39
28175;SHT30;59417;44.788;10.334;2022-09-27T05:06:10;15.67;76.01
28175;SHT30;59417;44.788;10.334;2022-09-27T05:08:36;15.76;75.63
28175;SHT30;59417;44.788;10.334;2022-09-27T05:11:31;15.77;76.01
28175;SHT30;59417;44.788;10.334;2022-09-27T05:14:17;15.36;77.54
28175;SHT30;59417;44.788;10.334;2022-09-27T05:16:53;15.29;77.99
28175;SHT30;59417;44.788;10.334;2022-09-27T05:19:30;15.42;77.19
28175;SHT30;59417;44.788;10.334;2022-09-27T05:22:08;15.41;77.16
28175;SHT30;59417;44.788;10.334;2022-09-27T05:24:34;15.41;77.12
28175;SHT30;59417;44.788;10.334;2022-09-27T05:27:03;15.49;76.57
28175;SHT30;59417;44.788;10.334;2022-09-27T05:29:33;15.56;76.52
28175;SHT30;59417;44.788;10.334;2022-09-27T05:32:13;15.46;76.94
28175;SHT30;59417;44.788;10.334;2022-09-27T05:34:40;15.46;76.65
28175;SHT30;59417;44.788;10.334;2022-09-27T05:37:06;15.42;77.06
28175;SHT30;59417;44.788;10.334;2022-09-27T05:39:36;15.39;77.11
28175;SHT30;59417;44.788;10.334;2022-09-27T05:42:02;15.36;77.09
28175;SHT30;59417;44.788;10.334;2022-09-27T05:44:29;15.38;76.75
28175;SHT30;59417;44.788;10.334;2022-09-27T05:47:00;15.41;76.54
28175;SHT30;59417;44.788;10.334;2022-09-27T05:49:29;15.45;76.49
28175;SHT30;59417;44.788;10.334;2022-09-27T05:51:55;15.31;76.90
28175;SHT30;59417;44.788;10.334;2022-09-27T05:54:22;15.19;77.36
28175;SHT30;59417;44.788;10.334;2022-09-27T05:56:48;15.29;76.82
28175;SHT30;59417;44.788;10.334;2022-09-27T05:59:35;15.36;76.71
28175;SHT30;59417;44.788;10.334;2022-09-27T06:02:22;15.42;76.39
28175;SHT30;59417;44.788;10.334;2022-09-27T06:05:11;15.42;76.45
28175;SHT30;59417;44.788;10.334;2022-09-27T06:08:14;15.32;77.06
28175;SHT30;59417;44.788;10.334;2022-09-27T06:13:40;15.39;76.89
28175;SHT30;59417;44.788;10.334;2022-09-27T06:16:10;15.41;77.22
28175;SHT30;59417;44.788;10.334;2022-09-27T06:18:43;15.38;77.76
28175;SHT30;59417;44.788;10.334;2022-09-27T06:21:09;15.51;77.36
28175;SHT30;59417;44.788;10.334;2022-09-27T06:23:52;15.61;77.21
28175;SHT30;59417;44.788;10.334;2022-09-27T06:26:26;15.69;77.19
28175;SHT30;59417;44.788;10.334;2022-09-27T06:29:11;15.69;77.51
28175;SHT30;59417;44.788;10.334;2022-09-27T06:31:48;15.73;77.73
28175;SHT30;59417;44.788;10.334;2022-09-27T06:34:36;15.82;77.37
28175;SHT30;59417;44.788;10.334;2022-09-27T06:37:03;15.89;77.50
28175;SHT30;59417;44.788;10.334;2022-09-27T06:39:30;16.03;77.24
28175;SHT30;59417;44.788;10.334;2022-09-27T06:42:16;16.23;76.53
28175;SHT30;59417;44.788;10.334;2022-09-27T06:45:00;16.34;76.34
28175;SHT30;59417;44.788;10.334;2022-09-27T06:47:44;16.52;75.06
28175;SHT30;59417;44.788;10.334;2022-09-27T06:50:36;16.49;74.54
28175;SHT30;59417;44.788;10.334;2022-09-27T06:53:04;16.45;75.12
28175;SHT30;59417;44.788;10.334;2022-09-27T06:55:30;16.40;75.63
28175;SHT30;59417;44.788;10.334;2022-09-27T06:57:57;16.47;75.74
28175;SHT30;59417;44.788;10.334;2022-09-27T07:01:00;16.62;75.28
28175;SHT30;59417;44.788;10.334;2022-09-27T07:03:49;16.84;75.00
28175;SHT30;59417;44.788;10.334;2022-09-27T07:06:23;17.03;74.69
28175;SHT30;59417;44.788;10.334;2022-09-27T07:09:09;17.23;73.77
28175;SHT30;59417;44.788;10.334;2022-09-27T07:11:36;17.49;73.23
28175;SHT30;59417;44.788;10.334;2022-09-27T07:14:03;17.58;72.84
28175;SHT30;59417;44.788;10.334;2022-09-27T07:16:30;17.73;72.29
28175;SHT30;59417;44.788;10.334;2022-09-27T07:19:03;17.82;71.65
28175;SHT30;59417;44.788;10.334;2022-09-27T07:21:32;17.90;70.12
28175;SHT30;59417;44.788;10.334;2022-09-27T07:23:59;18.05;69.45
28175;SHT30;59417;44.788;10.334;2022-09-27T07:26:24;18.01;69.60
28175;SHT30;59417;44.788;10.334;2022-09-27T07:28:50;17.87;70.41
28175;SHT30;59417;44.788;10.334;2022-09-27T07:31:19;17.87;70.51
28175;SHT30;59417;44.788;10.334;2022-09-27T07:33:45;18.05;69.61
28175;SHT30;59417;44.788;10.334;2022-09-27T07:36:12;18.06;70.21
28175;SHT30;59417;44.788;10.334;2022-09-27T07:38:41;18.09;69.82
28175;SHT30;59417;44.788;10.334;2022-09-27T07:41:10;18.08;70.10
28175;SHT30;59417;44.788;10.334;2022-09-27T07:43:37;17.94;70.38
28175;SHT30;59417;44.788;10.334;2022-09-27T07:46:03;17.90;71.06
28175;SHT30;59417;44.788;10.334;2022-09-27T07:48:42;17.98;70.83
28175;SHT30;59417;44.788;10.334;2022-09-27T07:51:22;18.13;71.16
28175;SHT30;59417;44.788;10.334;2022-09-27T07:53:58;18.35;70.08
28175;SHT30;59417;44.788;10.334;2022-09-27T07:56:46;18.36;69.57
28175;SHT30;59417;44.788;10.334;2022-09-27T07:59:15;18.28;70.61
28175;SHT30;59417;44.788;10.334;2022-09-27T08:01:40;18.37;70.17
28175;SHT30;59417;44.788;10.334;2022-09-27T08:04:06;18.35;70.72
28175;SHT30;59417;44.788;10.334;2022-09-27T08:06:33;18.41;70.11
28175;SHT30;59417;44.788;10.334;2022-09-27T08:08:58;18.19;71.07
28175;SHT30;59417;44.788;10.334;2022-09-27T08:11:27;18.06;71.64
28175;SHT30;59417;44.788;10.334;2022-09-27T08:13:53;18.22;71.44
28175;SHT30;59417;44.788;10.334;2022-09-27T08:16:26;18.28;70.72
28175;SHT30;59417;44.788;10.334;2022-09-27T08:19:10;18.30;71.31
28175;SHT30;59417;44.788;10.334;2022-09-27T08:21:55;18.39;69.49
28175;SHT30;59417;44.788;10.334;2022-09-27T08:25:08;18.51;69.83
28175;SHT30;59417;44.788;10.334;2022-09-27T08:28:06;18.51;69.74
28175;SHT30;59417;44.788;10.334;2022-09-27T08:30:34;18.64;70.09
28175;SHT30;59417;44.788;10.334;2022-09-27T08:33:01;18.80;69.70
28175;SHT30;59417;44.788;10.334;2022-09-27T08:35:28;19.03;68.79
28175;SHT30;59417;44.788;10.334;2022-09-27T08:37:56;19.32;67.70
28175;SHT30;59417;44.788;10.334;2022-09-27T08:40:57;19.44;67.10
28175;SHT30;59417;44.788;10.334;2022-09-27T08:49:37;19.38;66.50
28175;SHT30;59417;44.788;10.334;2022-09-27T08:52:07;19.32;65.93
28175;SHT30;59417;44.788;10.334;2022-09-27T08:54:38;19.27;65.72
28175;SHT30;59417;44.788;10.334;2022-09-27T08:57:11;19.25;66.18
28175;SHT30;59417;44.788;10.334;2022-09-27T08:59:41;19.31;67.64
28175;SHT30;59417;44.788;10.334;2022-09-27T09:02:34;19.57;66.17
28175;SHT30;59417;44.788;10.334;2022-09-27T09:05:26;19.59;65.03
28175;SHT30;59417;44.788;10.334;2022-09-27T09:11:14;19.65;65.22
28175;SHT30;59417;44.788;10.334;2022-09-27T09:14:37;19.96;64.73
28175;SHT30;59417;44.788;10.334;2022-09-27T09:20:16;20.02;64.98
28175;SHT30;59417;44.788;10.334;2022-09-27T09:23:23;20.03;63.97
28175;SHT30;59417;44.788;10.334;2022-09-27T09:26:17;20.00;62.84
28175;SHT30;59417;44.788;10.334;2022-09-27T09:29:25;20.08;64.03
28175;SHT30;59417;44.788;10.334;2022-09-27T09:35:20;20.26;63.27
28175;SHT30;59417;44.788;10.334;2022-09-27T09:38:13;20.44;62.41
28175;SHT30;59417;44.788;10.334;2022-09-27T09:44:40;20.70;61.54
28175;SHT30;59417;44.788;10.334;2022-09-27T09:50:13;20.80;63.15
28175;SHT30;59417;44.788;10.334;2022-09-27T09:52:46;20.90;63.12
28175;SHT30;59417;44.788;10.334;2022-09-27T09:55:46;21.01;63.41
28175;SHT30;59417;44.788;10.334;2022-09-27T09:58:22;21.18;63.27
28175;SHT30;59417;44.788;10.334;2022-09-27T10:00:56;21.33;62.44
28175;SHT30;59417;44.788;10.334;2022-09-27T10:03:25;21.49;61.13
28175;SHT30;59417;44.788;10.334;2022-09-27T10:05:54;21.47;61.97
28175;SHT30;59417;44.788;10.334;2022-09-27T10:08:29;21.59;61.25
28175;SHT30;59417;44.788;10.334;2022-09-27T10:11:35;21.73;61.53
28175;SHT30;59417;44.788;10.334;2022-09-27T10:14:19;21.70;62.53
28175;SHT30;59417;44.788;10.334;2022-09-27T10:16:48;21.84;62.33
28175;SHT30;59417;44.788;10.334;2022-09-27T10:19:24;21.93;62.46
28175;SHT30;59417;44.788;10.334;2022-09-27T10:21:52;22.11;62.86
28175;SHT30;59417;44.788;10.334;2022-09-27T10:24:18;22.25;61.63
28175;SHT30;59417;44.788;10.334;2022-09-27T10:27:07;22.41;61.08
28175;SHT30;59417;44.788;10.334;2022-09-27T10:29:36;22.17;59.65
28175;SHT30;59417;44.788;10.334;2022-09-27T10:32:20;22.03;61.65
28175;SHT30;59417;44.788;10.334;2022-09-27T10:34:47;22.06;61.01
28175;SHT30;59417;44.788;10.334;2022-09-27T10:37:22;21.87;59.39
28175;SHT30;59417;44.788;10.334;2022-09-27T10:39:58;21.94;60.66
28175;SHT30;59417;44.788;10.334;2022-09-27T10:42:35;22.13;61.66
28175;SHT30;59417;44.788;10.334;2022-09-27T10:45:32;22.10;58.59
28175;SHT30;59417;44.788;10.334;2022-09-27T10:48:22;21.98;60.33
28175;SHT30;59417;44.788;10.334;2022-09-27T10:50:57;22.01;61.42
28175;SHT30;59417;44.788;10.334;2022-09-27T10:53:35;22.16;60.86
28175;SHT30;59417;44.788;10.334;2022-09-27T10:56:21;22.10;59.73
28175;SHT30;59417;44.788;10.334;2022-09-27T10:58:49;22.10;59.47
28175;SHT30;59417;44.788;10.334;2022-09-27T11:01:17;22.03;59.56
28175;SHT30;59417;44.788;10.334;2022-09-27T11:04:33;22.17;61.59
28175;SHT30;59417;44.788;10.334;2022-09-27T11:07:26;22.38;60.88
28175;SHT30;59417;44.788;10.334;2022-09-27T11:09:59;22.68;60.34
28175;SHT30;59417;44.788;10.334;2022-09-27T11:12:29;22.86;60.31
28175;SHT30;59417;44.788;10.334;2022-09-27T11:15:06;22.98;58.14
28175;SHT30;59417;44.788;10.334;2022-09-27T11:17:53;23.02;58.63
28175;SHT30;59417;44.788;10.334;2022-09-27T11:20:50;22.80;58.20
28175;SHT30;59417;44.788;10.334;2022-09-27T11:26:38;22.96;57.26
28175;SHT30;59417;44.788;10.334;2022-09-27T11:46:35;23.06;57.80
28175;SHT30;59417;44.788;10.334;2022-09-27T11:57:46;22.61;54.68
28175;SHT30;59417;44.788;10.334;2022-09-27T12:00:22;22.52;56.33
28175;SHT30;59417;44.788;10.334;2022-09-27T12:08:32;22.98;56.17
28175;SHT30;59417;44.788;10.334;2022-09-27T12:11:26;23.12;56.98
28175;SHT30;59417;44.788;10.334;2022-09-27T12:14:32;23.10;55.85
28175;SHT30;59417;44.788;10.334;2022-09-27T12:17:05;23.12;54.90
28175;SHT30;59417;44.788;10.334;2022-09-27T12:19:39;22.92;56.38
28175;SHT30;59417;44.788;10.334;2022-09-27T12:22:32;22.73;56.89
28175;SHT30;59417;44.788;10.334;2022-09-27T12:25:04;22.64;56.10
28175;SHT30;59417;44.788;10.334;2022-09-27T12:28:52;22.61;57.38
28175;SHT30;59417;44.788;10.334;2022-09-27T12:34:29;22.35;57.13
28175;SHT30;59417;44.788;10.334;2022-09-27T12:37:20;22.54;55.26
28175;SHT30;59417;44.788;10.334;2022-09-27T12:43:18;22.88;54.52
28175;SHT30;59417;44.788;10.334;2022-09-27T12:46:52;23.06;53.76
28175;SHT30;59417;44.788;10.334;2022-09-27T12:52:26;22.88;48.41
28175;SHT30;59417;44.788;10.334;2022-09-27T13:00:40;22.75;51.03
28175;SHT30;59417;44.788;10.334;2022-09-27T13:12:26;22.75;54.82
28175;SHT30;59417;44.788;10.334;2022-09-27T13:25:00;22.65;55.67
28175;SHT30;59417;44.788;10.334;2022-09-27T13:27:45;22.54;56.56
28175;SHT30;59417;44.788;10.334;2022-09-27T13:36:16;22.71;54.45
28175;SHT30;59417;44.788;10.334;2022-09-27T13:42:39;22.58;56.12
28175;SHT30;59417;44.788;10.334;2022-09-27T13:45:32;22.61;56.53
28175;SHT30;59417;44.788;10.334;2022-09-27T13:47:59;22.58;55.89
28175;SHT30;59417;44.788;10.334;2022-09-27T13:53:38;22.65;55.32
28175;SHT30;59417;44.788;10.334;2022-09-27T13:59:36;22.61;55.07
28175;SHT30;59417;44.788;10.334;2022-09-27T14:03:13;22.61;55.58
28175;SHT30;59417;44.788;10.334;2022-09-27T14:09:02;22.85;54.42
28175;SHT30;59417;44.788;10.334;2022-09-27T14:11:36;22.82;53.95
28175;SHT30;59417;44.788;10.334;2022-09-27T14:14:05;22.73;54.80
28175;SHT30;59417;44.788;10.334;2022-09-27T14:16:41;22.73;57.27
28175;SHT30;59417;44.788;10.334;2022-09-27T14:19:14;22.73;55.22
28175;SHT30;59417;44.788;10.334;2022-09-27T14:21:44;22.71;55.86
28175;SHT30;59417;44.788;10.334;2022-09-27T14:27:29;22.73;54.71
28175;SHT30;59417;44.788;10.334;2022-09-27T14:30:13;22.76;55.76
28175;SHT30;59417;44.788;10.334;2022-09-27T14:32:50;22.73;55.69
28175;SHT30;59417;44.788;10.334;2022-09-27T14:35:24;22.79;54.69
28175;SHT30;59417;44.788;10.334;2022-09-27T14:38:13;22.79;53.41
28175;SHT30;59417;44.788;10.334;2022-09-27T14:40:39;22.69;55.13
28175;SHT30;59417;44.788;10.334;2022-09-27T14:43:17;22.65;54.74
28175;SHT30;59417;44.788;10.334;2022-09-27T14:45:45;22.69;52.76
28175;SHT30;59417;44.788;10.334;2022-09-27T14:51:30;22.92;52.87
28175;SHT30;59417;44.788;10.334;2022-09-27T14:53:58;22.99;51.12
28175;SHT30;59417;44.788;10.334;2022-09-27T14:56:35;22.99;50.80
28175;SHT30;59417;44.788;10.334;2022-09-27T14:59:32;23.00;50.65
28175;SHT30;59417;44.788;10.334;2022-09-27T15:02:03;23.03;49.15
28175;SHT30;59417;44.788;10.334;2022-09-27T15:04:34;22.99;49.80
28175;SHT30;59417;44.788;10.334;2022-09-27T15:07:02;23.00;50.13
28175;SHT30;59417;44.788;10.334;2022-09-27T15:09:31;22.96;50.18
28175;SHT30;59417;44.788;10.334;2022-09-27T15:11:58;22.93;50.66
28175;SHT30;59417;44.788;10.334;2022-09-27T15:14:25;23.02;49.74
28175;SHT30;59417;44.788;10.334;2022-09-27T15:16:53;22.98;49.70
28175;SHT30;59417;44.788;10.334;2022-09-27T15:19:27;22.89;50.17
28175;SHT30;59417;44.788;10.334;2022-09-27T15:21:54;22.83;49.64
28175;SHT30;59417;44.788;10.334;2022-09-27T15:24:51;22.78;49.98
28175;SHT30;59417;44.788;10.334;2022-09-27T15:27:22;22.76;49.92
28175;SHT30;59417;44.788;10.334;2022-09-27T15:29:56;22.80;49.39
28175;SHT30;59417;44.788;10.334;2022-09-27T15:32:24;22.82;49.79
28175;SHT30;59417;44.788;10.334;2022-09-27T15:34:54;22.80;49.42
28175;SHT30;59417;44.788;10.334;2022-09-27T15:37:33;22.82;49.46
28175;SHT30;59417;44.788;10.334;2022-09-27T15:42:57;22.78;49.74
28175;SHT30;59417;44.788;10.334;2022-09-27T15:45:29;22.78;50.01
28175;SHT30;59417;44.788;10.334;2022-09-27T15:47:55;22.79;50.10
28175;SHT30;59417;44.788;10.334;2022-09-27T15:52:51;22.75;50.67
28175;SHT30;59417;44.788;10.334;2022-09-27T15:55:25;22.67;49.42
28175;SHT30;59417;44.788;10.334;2022-09-27T15:57:59;22.64;49.79
28175;SHT30;59417;44.788;10.334;2022-09-27T16:00:28;22.59;50.45
28175;SHT30;59417;44.788;10.334;2022-09-27T16:02:57;22.57;49.99
28175;SHT30;59417;44.788;10.334;2022-09-27T16:05:23;22.51;49.98
28175;SHT30;59417;44.788;10.334;2022-09-27T16:07:49;22.48;51.20
28175;SHT30;59417;44.788;10.334;2022-09-27T16:10:17;22.42;50.66
28175;SHT30;59417;44.788;10.334;2022-09-27T16:12:43;22.41;51.79
28175;SHT30;59417;44.788;10.334;2022-09-27T16:15:13;22.34;51.64
28175;SHT30;59417;44.788;10.334;2022-09-27T16:17:39;22.35;52.30
28175;SHT30;59417;44.788;10.334;2022-09-27T16:20:16;22.28;51.08
28175;SHT30;59417;44.788;10.334;2022-09-27T16:22:41;22.20;52.00
28175;SHT30;59417;44.788;10.334;2022-09-27T16:25:07;22.18;52.59
28175;SHT30;59417;44.788;10.334;2022-09-27T16:27:33;22.16;52.07
28175;SHT30;59417;44.788;10.334;2022-09-27T16:29:59;22.06;52.63
28175;SHT30;59417;44.788;10.334;2022-09-27T16:32:25;22.00;52.68
28175;SHT30;59417;44.788;10.334;2022-09-27T16:34:51;21.89;52.68
28175;SHT30;59417;44.788;10.334;2022-09-27T16:37:16;21.86;53.98
28175;SHT30;59417;44.788;10.334;2022-09-27T16:39:42;21.78;53.17
28175;SHT30;59417;44.788;10.334;2022-09-27T16:42:07;21.74;53.26
28175;SHT30;59417;44.788;10.334;2022-09-27T16:44:34;21.66;53.42
28175;SHT30;59417;44.788;10.334;2022-09-27T16:47:03;21.62;53.81
28175;SHT30;59417;44.788;10.334;2022-09-27T16:49:29;21.62;53.74
28175;SHT30;59417;44.788;10.334;2022-09-27T16:52:14;21.59;54.16
28175;SHT30;59417;44.788;10.334;2022-09-27T16:54:41;21.43;55.13
28175;SHT30;59417;44.788;10.334;2022-09-27T16:57:07;21.41;55.20
28175;SHT30;59417;44.788;10.334;2022-09-27T16:59:33;21.49;54.64
28175;SHT30;59417;44.788;10.334;2022-09-27T17:01:58;21.43;54.49
28175;SHT30;59417;44.788;10.334;2022-09-27T17:04:25;21.41;54.66
28175;SHT30;59417;44.788;10.334;2022-09-27T17:06:52;21.39;55.01
28175;SHT30;59417;44.788;10.334;2022-09-27T17:09:17;21.36;54.69
28175;SHT30;59417;44.788;10.334;2022-09-27T17:11:43;21.28;55.20
28175;SHT30;59417;44.788;10.334;2022-09-27T17:14:10;21.29;55.25
28175;SHT30;59417;44.788;10.334;2022-09-27T17:19:39;21.28;54.80
28175;SHT30;59417;44.788;10.334;2022-09-27T17:22:06;21.18;54.81
28175;SHT30;59417;44.788;10.334;2022-09-27T17:24:32;21.22;54.43
28175;SHT30;59417;44.788;10.334;2022-09-27T17:26:57;21.19;54.93
28175;SHT30;59417;44.788;10.334;2022-09-27T17:29:23;21.23;54.57
28175;SHT30;59417;44.788;10.334;2022-09-27T17:31:49;21.09;55.02
28175;SHT30;59417;44.788;10.334;2022-09-27T17:34:14;21.11;54.71
28175;SHT30;59417;44.788;10.334;2022-09-27T17:36:42;21.08;54.98
28175;SHT30;59417;44.788;10.334;2022-09-27T17:43:06;20.91;56.23
28175;SHT30;59417;44.788;10.334;2022-09-27T17:45:36;20.82;56.15
28175;SHT30;59417;44.788;10.334;2022-09-27T17:48:13;20.80;56.48
28175;SHT30;59417;44.788;10.334;2022-09-27T17:50:58;20.82;56.50
28175;SHT30;59417;44.788;10.334;2022-09-27T17:53:28;20.75;56.89
28175;SHT30;59417;44.788;10.334;2022-09-27T17:55:59;20.78;56.28
28175;SHT30;59417;44.788;10.334;2022-09-27T17:58:25;20.68;56.10
28175;SHT30;59417;44.788;10.334;2022-09-27T18:00:51;20.62;56.40
28175;SHT30;59417;44.788;10.334;2022-09-27T18:03:19;20.64;55.69
28175;SHT30;59417;44.788;10.334;2022-09-27T18:05:46;20.67;55.45
28175;SHT30;59417;44.788;10.334;2022-09-27T18:08:12;20.58;55.60
28175;SHT30;59417;44.788;10.334;2022-09-27T18:10:37;20.55;56.11
28175;SHT30;59417;44.788;10.334;2022-09-27T18:13:07;20.48;56.36
28175;SHT30;59417;44.788;10.334;2022-09-27T18:15:32;20.53;56.10
28175;SHT30;59417;44.788;10.334;2022-09-27T18:18:02;20.50;56.27
28175;SHT30;59417;44.788;10.334;2022-09-27T18:20:35;20.41;56.31
28175;SHT30;59417;44.788;10.334;2022-09-27T18:23:02;20.41;56.32
28175;SHT30;59417;44.788;10.334;2022-09-27T18:25:28;20.41;56.24
28175;SHT30;59417;44.788;10.334;2022-09-27T18:27:54;20.36;56.68
28175;SHT30;59417;44.788;10.334;2022-09-27T18:41:15;20.14;57.57
28175;SHT30;59417;44.788;10.334;2022-09-27T18:43:43;20.13;56.90
28175;SHT30;59417;44.788;10.334;2022-09-27T18:46:14;20.09;56.98
28175;SHT30;59417;44.788;10.334;2022-09-27T18:56:29;19.90;57.58
28175;SHT30;59417;44.788;10.334;2022-09-27T18:58:55;19.83;57.71
28175;SHT30;59417;44.788;10.334;2022-09-27T19:01:24;19.80;57.63
28175;SHT30;59417;44.788;10.334;2022-09-27T19:03:50;19.79;57.80
28175;SHT30;59417;44.788;10.334;2022-09-27T19:06:19;19.79;57.88
28175;SHT30;59417;44.788;10.334;2022-09-27T19:09:16;19.75;57.88